Terminal Aerodrome Forecast
Issued by NWS

Home | Current Version | Previous Version | Graphics & Text | Print | Product List | Glossary On
Versions: 1 2 3 4 5 6 7 8 9 10 11 12 13 14
893
FTUS42 KMHX 201140
TAFPGV
TAF
KPGV 201140Z 2012/2112 00000KT 2SM BR BKN001
      TEMPO 2012/2013 1SM BR BKN001
     FM201330 01005KT P6SM SCT050
     FM201800 03005KT P6SM VCTS SCT050CB
     FM202300 VRB04KT P6SM FEW050 SCT250
     FM210900 VRB03KT 3SM BR SKC
      AMD LTD TO CLD VIS AND WIND=

USA.gov is the U.S. government's official web portal to all federal, state and local government web resources and services.